Time;durP1;ratioP1;P1;durP2;ratioP2;P2;SDS_P1;SDS_P2;PMS_P1;PMS_P2;Temp;Humidity;BMP_temperature;BMP_pressure;BME280_temperature;BME280_humidity;BME280_pressure;Samples;Min_cycle;Max_cycle;Signal;HPM_P1;HPM_P2
2021/03/14 00:00:35;;;;;;;5.07;3.47;;;23.90;39.50;;;;;;5047843;28;45300;-61
2021/03/14 00:03:01;;;;;;;4.45;3.15;;;23.80;39.50;;;;;;5047680;28;45479;-61
2021/03/14 00:05:27;;;;;;;4.22;2.90;;;23.90;39.60;;;;;;5047628;28;45379;-61
2021/03/14 00:07:53;;;;;;;4.03;3.03;;;23.80;39.50;;;;;;5048094;28;45501;-61
2021/03/14 00:10:19;;;;;;;5.40;3.05;;;23.80;39.50;;;;;;5047446;28;45313;-61
2021/03/14 00:12:44;;;;;;;4.30;2.83;;;23.80;39.50;;;;;;5047458;28;45265;-61
2021/03/14 00:15:11;;;;;;;3.92;2.80;;;23.80;39.50;;;;;;5047646;28;45213;-62
2021/03/14 00:17:37;;;;;;;3.33;2.58;;;23.70;39.50;;;;;;5047838;28;45606;-61
2021/03/14 00:20:04;;;;;;;4.03;3.15;;;23.80;39.50;;;;;;5047075;28;47017;-61
2021/03/14 00:22:30;;;;;;;3.80;2.90;;;23.80;39.50;;;;;;5057713;28;45341;-62
2021/03/14 00:24:56;;;;;;;4.65;3.25;;;23.80;39.60;;;;;;5051136;28;45437;-62
2021/03/14 00:27:21;;;;;;;4.38;3.08;;;23.70;39.50;;;;;;5050893;28;45573;-61
2021/03/14 00:29:47;;;;;;;5.63;3.38;;;23.70;39.50;;;;;;5050566;28;47138;-62
2021/03/14 00:32:12;;;;;;;4.25;3.13;;;23.80;39.60;;;;;;5050550;28;45277;-61
2021/03/14 00:34:38;;;;;;;4.40;3.20;;;23.70;39.50;;;;;;5050703;28;45295;-61
2021/03/14 00:37:07;;;;;;;4.97;3.35;;;23.70;39.50;;;;;;5050904;28;45585;-62
2021/03/14 00:39:33;;;;;;;4.80;3.40;;;23.70;39.60;;;;;;5066475;28;46057;-62
2021/03/14 00:41:58;;;;;;;4.40;2.78;;;23.70;39.50;;;;;;5050303;28;45291;-61
2021/03/14 00:44:24;;;;;;;4.97;3.42;;;23.70;39.50;;;;;;5050445;28;45445;-61
2021/03/14 00:46:49;;;;;;;4.15;3.03;;;23.70;39.50;;;;;;5050071;28;45460;-61
2021/03/14 00:49:19;;;;;;;4.20;2.65;;;23.70;39.60;;;;;;5046468;28;45656;-62
2021/03/14 00:51:45;;;;;;;3.95;2.80;;;23.70;39.60;;;;;;5029964;28;45411;-61
2021/03/14 00:54:11;;;;;;;4.45;2.95;;;23.70;39.60;;;;;;5030363;28;45532;-62
2021/03/14 00:56:36;;;;;;;4.20;3.13;;;23.70;39.60;;;;;;5047003;28;45381;-61
2021/03/14 00:59:02;;;;;;;4.93;3.35;;;23.70;39.60;;;;;;5046361;28;47190;-62
2021/03/14 01:01:28;;;;;;;4.22;2.90;;;23.70;39.60;;;;;;5047516;28;45253;-61
2021/03/14 01:03:54;;;;;;;5.32;3.33;;;23.60;39.60;;;;;;5066939;28;45425;-62
2021/03/14 01:06:20;;;;;;;4.47;2.80;;;23.60;39.50;;;;;;5050285;28;45320;-61
2021/03/14 01:08:45;;;;;;;4.15;2.88;;;23.60;39.60;;;;;;5049527;28;46169;-61
2021/03/14 01:11:11;;;;;;;4.68;3.35;;;23.60;39.60;;;;;;5036836;28;45371;-61
2021/03/14 01:13:37;;;;;;;3.92;2.95;;;23.60;39.60;;;;;;5046513;28;45216;-61
2021/03/14 01:16:03;;;;;;;4.00;3.10;;;23.60;39.60;;;;;;5046730;28;45402;-61
2021/03/14 01:18:28;;;;;;;4.15;2.75;;;23.60;39.60;;;;;;5046343;28;46908;-62
2021/03/14 01:20:54;;;;;;;4.68;3.40;;;23.60;40.20;;;;;;5046709;28;45299;-61
2021/03/14 01:23:19;;;;;;;3.85;2.90;;;23.60;39.60;;;;;;5046381;28;45425;-61
2021/03/14 01:25:45;;;;;;;4.93;3.10;;;23.60;39.60;;;;;;5030105;28;45512;-62
2021/03/14 01:28:11;;;;;;;4.32;3.10;;;23.60;39.60;;;;;;5046211;28;45575;-61
2021/03/14 01:30:36;;;;;;;5.20;3.83;;;23.60;39.60;;;;;;5046436;28;45304;-61
2021/03/14 01:33:02;;;;;;;4.68;3.50;;;23.60;39.60;;;;;;5046175;28;45347;-62
2021/03/14 01:35:28;;;;;;;4.63;3.20;;;23.50;39.60;;;;;;5046717;28;45261;-61
2021/03/14 01:37:53;;;;;;;4.63;3.30;;;23.60;39.60;;;;;;5046077;28;46081;-61
2021/03/14 01:40:19;;;;;;;4.85;3.25;;;23.50;39.60;;;;;;5045835;28;45323;-62
2021/03/14 01:42:45;;;;;;;4.57;3.33;;;23.50;39.60;;;;;;5046337;28;45481;-62
2021/03/14 01:45:12;;;;;;;4.20;3.10;;;23.50;39.60;;;;;;5045750;28;45229;-62
2021/03/14 01:47:45;;;;;;;4.03;3.10;;;23.50;39.60;;;;;;5045580;28;46500;-61
2021/03/14 01:50:16;;;;;;;5.57;3.58;;;23.50;39.60;;;;;;5038072;28;45316;-61
2021/03/14 01:52:42;;;;;;;4.75;3.53;;;23.50;39.60;;;;;;5047201;28;45331;-61
2021/03/14 01:55:08;;;;;;;7.22;3.13;;;23.50;39.60;;;;;;5045773;28;45279;-61
2021/03/14 01:57:34;;;;;;;4.78;3.47;;;23.50;39.60;;;;;;5045705;28;47189;-61
2021/03/14 02:00:00;;;;;;;4.20;3.10;;;23.50;39.60;;;;;;5046123;28;45241;-61
2021/03/14 02:02:25;;;;;;;4.47;3.45;;;23.50;39.60;;;;;;5046102;28;45311;-61
2021/03/14 02:04:51;;;;;;;4.15;2.95;;;23.50;39.60;;;;;;5046219;28;45342;-62
2021/03/14 02:07:17;;;;;;;4.50;3.25;;;23.50;39.60;;;;;;5045224;28;45317;-62
2021/03/14 02:09:42;;;;;;;5.43;3.67;;;23.50;39.60;;;;;;5045817;28;45248;-62
2021/03/14 02:12:10;;;;;;;4.63;3.17;;;23.40;39.60;;;;;;5045828;28;45363;-62
2021/03/14 02:14:36;;;;;;;5.50;3.53;;;23.50;39.70;;;;;;5046368;28;45564;-62
2021/03/14 02:17:02;;;;;;;4.57;3.13;;;23.40;39.70;;;;;;5045569;28;45471;-61
2021/03/14 02:19:30;;;;;;;5.03;3.60;;;23.50;39.80;;;;;;5045653;28;45285;-61
2021/03/14 02:22:00;;;;;;;4.53;2.92;;;23.50;39.70;;;;;;5031536;28;45381;-61
2021/03/14 02:24:28;;;;;;;5.00;3.58;;;23.40;39.70;;;;;;5046234;28;45711;-61
2021/03/14 02:27:04;;;;;;;4.45;3.20;;;23.40;39.70;;;;;;5046824;28;45991;-62
2021/03/14 02:29:30;;;;;;;4.13;3.30;;;23.40;39.70;;;;;;5045196;28;45308;-61
2021/03/14 02:31:56;;;;;;;5.15;3.42;;;23.40;39.70;;;;;;5045891;28;45349;-61
2021/03/14 02:34:27;;;;;;;4.65;3.53;;;23.40;39.70;;;;;;5045999;28;45527;-62
2021/03/14 02:36:53;;;;;;;4.35;3.40;;;23.40;39.70;;;;;;5045544;28;46245;-61
2021/03/14 02:39:21;;;;;;;5.88;3.88;;;23.40;39.80;;;;;;5045683;28;45353;-61
2021/03/14 02:41:47;;;;;;;4.80;3.38;;;23.40;39.80;;;;;;5045814;28;45360;-61
2021/03/14 02:44:14;;;;;;;3.97;2.75;;;23.40;39.80;;;;;;5045948;28;45504;-62
2021/03/14 02:46:43;;;;;;;4.88;3.40;;;23.40;39.80;;;;;;5044470;28;46175;-61
2021/03/14 02:49:08;;;;;;;6.20;2.95;;;23.40;39.80;;;;;;5061598;28;45466;-61
2021/03/14 02:51:34;;;;;;;4.45;3.25;;;23.40;39.80;;;;;;5045191;28;45338;-61
2021/03/14 02:54:00;;;;;;;4.22;3.10;;;23.40;39.80;;;;;;5045450;28;45490;-62
2021/03/14 02:56:25;;;;;;;6.95;4.07;;;23.40;39.80;;;;;;5044406;28;47001;-62
2021/03/14 02:58:51;;;;;;;4.60;3.15;;;23.40;39.80;;;;;;5045089;28;45479;-61
2021/03/14 03:01:17;;;;;;;4.75;3.20;;;23.40;39.80;;;;;;5045218;28;45276;-61
2021/03/14 03:03:42;;;;;;;4.55;3.60;;;23.30;39.80;;;;;;5047118;28;45559;-61
2021/03/14 03:06:08;;;;;;;5.47;3.83;;;23.30;39.80;;;;;;5048518;28;46511;-62
2021/03/14 03:08:34;;;;;;;4.93;3.47;;;23.30;39.80;;;;;;5031540;28;45436;-61
2021/03/14 03:11:03;;;;;;;4.65;3.45;;;23.30;39.80;;;;;;5048624;28;45331;-61
2021/03/14 03:13:28;;;;;;;5.55;3.40;;;23.30;39.80;;;;;;5048915;28;45380;-61
2021/03/14 03:15:57;;;;;;;4.15;3.20;;;23.30;39.70;;;;;;5048036;28;46088;-61
2021/03/14 03:18:23;;;;;;;5.22;3.65;;;23.30;39.70;;;;;;5048386;28;45364;-62
2021/03/14 03:20:48;;;;;;;4.85;3.22;;;23.30;39.80;;;;;;5048523;28;45485;-61
2021/03/14 03:23:14;;;;;;;4.63;3.25;;;23.30;39.70;;;;;;5065252;28;45299;-61
2021/03/14 03:25:40;;;;;;;3.90;3.10;;;23.30;39.60;;;;;;5051479;28;46094;-61
2021/03/14 03:28:06;;;;;;;5.68;3.80;;;23.20;39.60;;;;;;5068418;28;45284;-61
2021/03/14 03:30:32;;;;;;;6.60;3.15;;;23.30;39.80;;;;;;5051696;28;45389;-62
2021/03/14 03:32:58;;;;;;;4.30;3.13;;;23.30;39.80;;;;;;5051825;28;45390;-63
2021/03/14 03:35:25;;;;;;;4.43;3.33;;;23.30;39.80;;;;;;5068398;28;45590;-62
2021/03/14 03:37:51;;;;;;;4.15;3.05;;;23.40;39.80;;;;;;5051844;28;45425;-62
2021/03/14 03:40:20;;;;;;;4.85;3.20;;;23.40;39.80;;;;;;5051591;28;45326;-62
2021/03/14 03:43:08;;;;;;;5.07;3.33;;;23.40;39.80;;;;;;5068688;28;45594;-61
2021/03/14 03:45:36;;;;;;;5.18;3.25;;;23.40;39.80;;;;;;5067963;28;46003;-61
2021/03/14 03:48:03;;;;;;;4.22;2.85;;;23.40;39.80;;;;;;5068097;28;45271;-62
2021/03/14 03:50:29;;;;;;;4.60;2.90;;;23.40;39.80;;;;;;5051190;28;45245;-61
2021/03/14 03:52:55;;;;;;;4.57;3.00;;;23.40;39.80;;;;;;5051885;28;45591;-61
2021/03/14 03:55:20;;;;;;;6.22;3.00;;;23.50;39.90;;;;;;5030685;28;46049;-61
2021/03/14 03:57:46;;;;;;;3.60;2.80;;;23.50;39.90;;;;;;5035658;28;45221;-62
2021/03/14 04:00:14;;;;;;;4.88;3.50;;;23.50;39.90;;;;;;5051296;28;45413;-62
2021/03/14 04:02:40;;;;;;;4.85;3.13;;;23.60;39.90;;;;;;5068465;28;45342;-62
2021/03/14 04:05:10;;;;;;;3.83;3.03;;;23.60;40.00;;;;;;5067418;28;47142;-62
2021/03/14 04:07:37;;;;;;;4.60;3.10;;;23.60;40.10;;;;;;5051070;28;45315;-62
2021/03/14 04:10:04;;;;;;;4.68;3.25;;;23.70;40.00;;;;;;5051269;28;45344;-62
2021/03/14 04:12:30;;;;;;;4.10;2.78;;;23.70;40.00;;;;;;5051372;28;45296;-62
2021/03/14 04:14:55;;;;;;;4.07;3.08;;;23.70;40.10;;;;;;5050687;28;45441;-62
2021/03/14 04:17:21;;;;;;;4.00;2.78;;;23.70;40.00;;;;;;5050801;28;45265;-62
2021/03/14 04:19:46;;;;;;;4.05;2.85;;;23.70;40.00;;;;;;5050784;28;45282;-62
2021/03/14 04:22:12;;;;;;;5.57;2.92;;;23.70;40.10;;;;;;5043307;28;45229;-61
2021/03/14 04:24:38;;;;;;;4.25;2.90;;;23.70;40.00;;;;;;5047363;28;47324;-62
2021/03/14 04:27:04;;;;;;;4.50;2.88;;;23.70;40.00;;;;;;5030568;28;45158;-62
2021/03/14 04:29:30;;;;;;;4.75;3.10;;;23.80;40.00;;;;;;5030633;28;45302;-61
2021/03/14 04:31:55;;;;;;;4.45;2.90;;;23.80;40.00;;;;;;5031036;28;45391;-62
2021/03/14 04:34:21;;;;;;;3.47;2.53;;;23.80;40.00;;;;;;5030429;28;46036;-62
2021/03/14 04:36:47;;;;;;;4.18;3.10;;;23.90;40.10;;;;;;5030263;28;45329;-62
2021/03/14 04:39:14;;;;;;;6.07;3.03;;;23.90;40.10;;;;;;5030649;28;45404;-61
2021/03/14 04:41:41;;;;;;;4.32;2.90;;;23.90;40.10;;;;;;5030877;28;45450;-62
2021/03/14 04:44:07;;;;;;;4.25;2.85;;;23.90;40.10;;;;;;5046883;28;46147;-61
2021/03/14 04:46:33;;;;;;;4.05;2.78;;;23.90;40.10;;;;;;5029934;28;45412;-62
2021/03/14 04:48:58;;;;;;;5.07;3.22;;;23.90;40.10;;;;;;5046871;28;45320;-61
2021/03/14 04:51:25;;;;;;;3.92;2.47;;;24.00;40.10;;;;;;5030763;28;45263;-62
2021/03/14 04:53:51;;;;;;;4.25;2.60;;;24.00;40.10;;;;;;5030069;28;47037;-61
2021/03/14 04:56:17;;;;;;;3.75;2.67;;;24.00;40.10;;;;;;5029793;28;45332;-62
2021/03/14 04:58:43;;;;;;;3.80;2.17;;;24.00;40.00;;;;;;5030248;28;45422;-62
2021/03/14 05:01:09;;;;;;;4.60;3.28;;;24.00;39.90;;;;;;5030496;28;45557;-61
2021/03/14 05:03:34;;;;;;;4.35;2.53;;;24.00;39.90;;;;;;5029946;28;46472;-62
2021/03/14 05:06:00;;;;;;;4.07;2.85;;;24.00;39.90;;;;;;5029849;28;45377;-62
2021/03/14 05:08:25;;;;;;;3.72;2.78;;;24.10;39.90;;;;;;5030019;28;45470;-62
2021/03/14 05:10:53;;;;;;;4.82;2.60;;;24.10;39.80;;;;;;5030614;28;45435;-62
2021/03/14 05:13:19;;;;;;;4.15;2.75;;;24.10;39.90;;;;;;5029792;28;46916;-61
2021/03/14 05:15:48;;;;;;;3.55;2.15;;;24.10;39.90;;;;;;5029669;28;45320;-61
2021/03/14 05:18:14;;;;;;;3.90;2.60;;;24.10;39.90;;;;;;5030434;28;45279;-61
2021/03/14 05:20:40;;;;;;;3.88;2.63;;;24.10;39.80;;;;;;5030427;28;45428;-62
2021/03/14 05:23:05;;;;;;;4.10;2.63;;;24.10;39.80;;;;;;5044783;28;46529;-61
2021/03/14 05:25:32;;;;;;;3.40;2.28;;;24.10;39.80;;;;;;5044997;28;45485;-62
2021/03/14 05:27:58;;;;;;;4.32;2.28;;;24.10;39.70;;;;;;5066510;28;45334;-62
2021/03/14 05:30:28;;;;;;;3.88;2.50;;;24.20;39.80;;;;;;5033507;28;45273;-61
2021/03/14 05:32:55;;;;;;;4.43;3.00;;;24.20;39.80;;;;;;5066263;28;45312;-63
2021/03/14 05:35:22;;;;;;;3.70;2.28;;;24.20;39.80;;;;;;5049322;28;45356;-62
2021/03/14 05:37:48;;;;;;;3.38;2.45;;;24.20;39.80;;;;;;5049890;28;45323;-62
2021/03/14 05:40:14;;;;;;;3.58;2.47;;;24.20;39.70;;;;;;5053279;28;45401;-62
2021/03/14 05:42:40;;;;;;;4.63;2.38;;;24.20;39.60;;;;;;5046163;28;45858;-62
2021/03/14 05:45:07;;;;;;;3.83;2.50;;;24.20;39.60;;;;;;5029380;28;45485;-62
2021/03/14 05:47:32;;;;;;;4.70;2.33;;;24.30;39.70;;;;;;5049699;28;45486;-62
2021/03/14 05:49:58;;;;;;;3.78;2.42;;;24.30;39.70;;;;;;5040220;28;45341;-62
2021/03/14 05:52:24;;;;;;;4.25;2.80;;;24.30;39.70;;;;;;5045436;28;45383;-62
2021/03/14 05:54:50;;;;;;;3.97;2.63;;;24.30;39.70;;;;;;5045011;28;45520;-60
2021/03/14 05:57:16;;;;;;;3.95;2.47;;;24.30;39.60;;;;;;5045495;28;45323;-61
2021/03/14 05:59:44;;;;;;;4.18;2.63;;;24.40;39.60;;;;;;5046759;28;45459;-62
2021/03/14 06:02:09;;;;;;;4.40;2.42;;;24.40;39.60;;;;;;5045947;28;46069;-62
2021/03/14 06:04:35;;;;;;;4.53;2.60;;;24.40;39.60;;;;;;5045761;28;45291;-62
2021/03/14 06:07:01;;;;;;;3.90;2.83;;;24.40;39.60;;;;;;5046046;28;45262;-62
2021/03/14 06:09:26;;;;;;;3.70;2.38;;;24.50;39.60;;;;;;5046483;28;45718;-62
2021/03/14 06:11:52;;;;;;;4.10;2.38;;;24.50;39.60;;;;;;5055175;28;46243;-62
2021/03/14 06:14:18;;;;;;;3.80;2.40;;;24.50;39.60;;;;;;5046937;28;45343;-62
2021/03/14 06:16:43;;;;;;;4.20;2.83;;;24.50;39.60;;;;;;5047799;28;45882;-62
2021/03/14 06:19:09;;;;;;;3.70;2.40;;;24.50;39.60;;;;;;5066474;28;45357;-63
2021/03/14 06:21:35;;;;;;;3.95;2.83;;;24.50;39.50;;;;;;5046025;28;46262;-62
2021/03/14 06:24:05;;;;;;;4.05;2.30;;;24.60;39.50;;;;;;5045763;28;45384;-61
2021/03/14 06:26:42;;;;;;;3.95;2.28;;;24.60;40.10;;;;;;5045774;28;45412;-61
2021/03/14 06:29:34;;;;;;;3.78;2.30;;;24.60;39.50;;;;;;5043768;28;45693;-62
2021/03/14 06:32:01;;;;;;;4.30;2.40;;;24.60;39.50;;;;;;5043778;28;46461;-62
2021/03/14 06:34:26;;;;;;;3.50;2.20;;;24.70;39.50;;;;;;5045270;28;45340;-62
2021/03/14 06:36:53;;;;;;;4.00;2.55;;;24.70;39.50;;;;;;5046579;28;45396;-62
2021/03/14 06:39:29;;;;;;;3.10;2.15;;;24.70;39.40;;;;;;5048282;28;45377;-62
2021/03/14 06:41:54;;;;;;;5.03;2.38;;;24.70;39.40;;;;;;5050606;28;45401;-62
2021/03/14 06:44:24;;;;;;;3.78;2.05;;;24.80;39.40;;;;;;5031984;28;45380;-62
2021/03/14 06:46:50;;;;;;;4.00;2.47;;;24.80;39.40;;;;;;5048417;28;45282;-62
2021/03/14 06:49:17;;;;;;;3.97;2.30;;;24.80;39.40;;;;;;5054936;28;45576;-62
2021/03/14 06:51:50;;;;;;;3.50;2.13;;;24.80;39.40;;;;;;5040117;28;46315;-62
2021/03/14 06:54:29;;;;;;;3.50;2.63;;;24.80;39.40;;;;;;5053115;28;45524;-62
2021/03/14 06:57:05;;;;;;;4.57;2.70;;;24.80;39.40;;;;;;5057671;28;45334;-62
2021/03/14 06:59:41;;;;;;;3.90;2.20;;;24.90;39.30;;;;;;5058202;28;45482;-62
2021/03/14 07:02:12;;;;;;;4.07;2.60;;;24.90;39.30;;;;;;5055760;28;46229;-62
2021/03/14 07:04:37;;;;;;;3.78;2.30;;;24.80;39.20;;;;;;5056694;28;45372;-62
2021/03/14 07:07:03;;;;;;;4.25;2.22;;;24.90;39.30;;;;;;5059796;28;45321;-62
2021/03/14 07:09:29;;;;;;;3.22;2.15;;;24.90;39.30;;;;;;5060592;28;45707;-62
2021/03/14 07:11:54;;;;;;;3.65;2.35;;;24.90;39.30;;;;;;5034980;28;47087;-62
2021/03/14 07:14:20;;;;;;;5.35;2.70;;;24.90;39.40;;;;;;5051976;28;45326;-62
2021/03/14 07:16:47;;;;;;;4.03;2.92;;;24.90;39.50;;;;;;5051847;28;45347;-62
2021/03/14 07:19:23;;;;;;;4.85;2.92;;;25.00;39.50;;;;;;5069178;28;45354;-62
2021/03/14 07:22:07;;;;;;;4.55;3.15;;;24.90;39.30;;;;;;5064129;28;46193;-62
2021/03/14 07:24:43;;;;;;;5.78;2.95;;;24.90;39.80;;;;;;5048289;28;45308;-62
2021/03/14 07:27:12;;;;;;;5.43;3.33;;;25.00;39.20;;;;;;5053791;28;45347;-62
2021/03/14 07:29:39;;;;;;;6.18;3.95;;;24.90;39.10;;;;;;5052169;28;45517;-62
2021/03/14 07:32:06;;;;;;;7.97;4.40;;;25.00;39.00;;;;;;5054249;28;46220;-62
2021/03/14 07:34:32;;;;;;;7.00;4.38;;;25.00;38.40;;;;;;5071975;28;45371;-62
2021/03/14 07:36:57;;;;;;;8.35;4.65;;;24.90;37.80;;;;;;5058860;28;45381;-62
2021/03/14 07:39:23;;;;;;;4.90;3.63;;;24.90;37.90;;;;;;5048565;28;45284;-62
2021/03/14 07:41:49;;;;;;;6.70;3.85;;;24.90;37.90;;;;;;5047789;28;45994;-62
2021/03/14 07:44:17;;;;;;;6.63;4.15;;;24.90;37.80;;;;;;5048044;28;45302;-62
2021/03/14 07:46:43;;;;;;;5.60;3.78;;;24.90;37.50;;;;;;5049339;28;45437;-62
2021/03/14 07:49:11;;;;;;;6.75;3.95;;;25.00;37.60;;;;;;5061210;28;45362;-62
2021/03/14 07:51:37;;;;;;;8.43;4.43;;;24.90;37.50;;;;;;5068060;28;46190;-62
2021/03/14 07:54:04;;;;;;;7.38;3.70;;;24.90;37.40;;;;;;5031386;28;45364;-62
2021/03/14 07:56:33;;;;;;;5.35;3.42;;;24.90;37.40;;;;;;5047329;28;45403;-62
2021/03/14 07:58:59;;;;;;;5.75;3.85;;;24.90;37.20;;;;;;5048425;28;45451;-62
2021/03/14 08:01:25;;;;;;;5.10;3.03;;;24.90;37.20;;;;;;5047542;28;46388;-62
2021/03/14 08:03:52;;;;;;;5.60;2.90;;;24.90;37.10;;;;;;5047574;28;45373;-62
2021/03/14 08:06:25;;;;;;;4.60;2.85;;;24.90;37.00;;;;;;5047915;28;45375;-62
2021/03/14 08:08:51;;;;;;;4.28;2.60;;;24.90;36.90;;;;;;5048192;28;45318;-62
2021/03/14 08:11:24;;;;;;;4.30;2.80;;;24.90;36.90;;;;;;5049061;28;45321;-62
2021/03/14 08:13:49;;;;;;;5.03;3.10;;;24.90;36.90;;;;;;5041832;28;45342;-62
2021/03/14 08:16:15;;;;;;;5.15;2.72;;;24.90;36.90;;;;;;5066990;28;45492;-62
2021/03/14 08:18:48;;;;;;;8.70;2.75;;;24.90;36.80;;;;;;5056995;28;46484;-62
2021/03/14 08:21:19;;;;;;;4.88;2.35;;;24.90;36.80;;;;;;5057108;28;46061;-62
2021/03/14 08:23:49;;;;;;;4.05;2.22;;;24.90;36.60;;;;;;5059443;28;45267;-62
2021/03/14 08:26:32;;;;;;;6.25;2.60;;;24.80;36.50;;;;;;5055988;28;45430;-62
2021/03/14 08:29:05;;;;;;;3.67;1.98;;;24.80;36.30;;;;;;5039283;28;45505;-61
2021/03/14 08:31:46;;;;;;;4.32;2.28;;;24.80;36.50;;;;;;5058676;28;46040;-61
2021/03/14 08:34:25;;;;;;;7.05;2.95;;;24.80;36.00;;;;;;5057843;28;45246;-62
2021/03/14 08:36:51;;;;;;;12.25;3.40;;;24.70;36.00;;;;;;5057704;28;45390;-62
2021/03/14 08:39:23;;;;;;;6.05;2.00;;;24.70;35.80;;;;;;5047083;28;45407;-62
2021/03/14 08:41:59;;;;;;;8.82;2.20;;;24.70;35.30;;;;;;5055829;28;46084;-61
2021/03/14 08:44:34;;;;;;;8.35;2.45;;;24.60;35.00;;;;;;5057695;28;45445;-61
2021/03/14 08:47:03;;;;;;;;;;;24.60;35.50;;;;;;5068633;28;45461;-62
2021/03/14 08:49:29;;;;;;;5.95;1.92;;;24.50;35.70;;;;;;5061736;28;45815;-61
2021/03/14 08:51:55;;;;;;;5.13;2.30;;;24.40;36.70;;;;;;5030832;28;46975;-61
2021/03/14 08:54:25;;;;;;;3.78;1.98;;;24.50;36.50;;;;;;5064415;28;45538;-61
2021/03/14 08:56:55;;;;;;;7.82;1.80;;;24.40;37.10;;;;;;5044047;28;45390;-62
2021/03/14 08:59:21;;;;;;;5.57;2.13;;;24.40;37.10;;;;;;5054815;28;45279;-65
2021/03/14 09:01:54;;;;;;;7.30;2.80;;;24.30;36.30;;;;;;5040542;28;46307;-64
2021/03/14 09:04:28;;;;;;;8.68;2.85;;;24.30;36.60;;;;;;5047181;28;45359;-63
2021/03/14 09:07:00;;;;;;;6.53;2.25;;;24.30;36.40;;;;;;5066049;28;45574;-63
2021/03/14 09:09:26;;;;;;;6.97;2.10;;;24.30;35.60;;;;;;5076623;28;45450;-63
2021/03/14 09:11:53;;;;;;;14.25;2.95;;;24.30;35.70;;;;;;5067523;28;46261;-64
2021/03/14 09:14:18;;;;;;;7.38;2.30;;;24.30;36.30;;;;;;5055988;28;45477;-65
2021/03/14 09:16:44;;;;;;;12.20;2.50;;;24.20;36.50;;;;;;5084334;28;45239;-61
2021/03/14 09:19:10;;;;;;;6.95;2.72;;;24.10;36.40;;;;;;5063629;28;45600;-57
2021/03/14 09:22:12;;;;;;;5.63;2.63;;;24.10;36.20;;;;;;5057312;28;46767;-57
2021/03/14 09:24:42;;;;;;;8.13;3.03;;;24.10;36.10;;;;;;5063755;28;45445;-60
2021/03/14 09:27:15;;;;;;;6.18;2.85;;;24.10;36.30;;;;;;5069457;28;45407;-61
2021/03/14 09:29:48;;;;;;;9.10;3.13;;;24.10;36.70;;;;;;5070868;28;45398;-62
2021/03/14 09:32:25;;;;;;;15.63;3.45;;;24.20;36.60;;;;;;5069856;28;45488;-61
2021/03/14 09:34:51;;;;;;;5.53;2.30;;;24.20;37.10;;;;;;5070829;28;45466;-61
2021/03/14 09:37:28;;;;;;;5.63;2.90;;;24.20;37.20;;;;;;5078042;28;46299;-61
2021/03/14 09:40:38;;;;;;;29.42;4.35;;;24.20;38.20;;;;;;5074444;28;45463;-57
2021/03/14 09:43:13;;;;;;;13.27;2.83;;;24.20;37.70;;;;;;5086566;27;45930;-56
2021/03/14 09:45:59;;;;;;;9.98;4.32;;;24.20;37.70;;;;;;5064454;28;46101;-62
2021/03/14 09:48:34;;;;;;;11.60;2.72;;;24.30;37.70;;;;;;5072325;28;46304;-61
2021/03/14 09:51:10;;;;;;;15.00;3.55;;;24.30;37.60;;;;;;5073983;28;45368;-62
2021/03/14 09:53:37;;;;;;;9.20;2.97;;;24.40;37.50;;;;;;5053104;28;45402;-64
2021/03/14 09:56:04;;;;;;;12.05;3.88;;;24.50;37.50;;;;;;5048816;28;45525;-63
2021/03/14 09:58:30;;;;;;;10.55;3.25;;;24.50;37.50;;;;;;5068817;28;45486;-61
2021/03/14 10:00:56;;;;;;;10.75;3.45;;;24.50;37.40;;;;;;5052795;28;45491;-61
2021/03/14 10:03:23;;;;;;;11.60;3.17;;;24.60;37.40;;;;;;5048035;28;45578;-62
2021/03/14 10:05:59;;;;;;;4.85;2.60;;;24.60;37.20;;;;;;5053622;28;45360;-63
2021/03/14 10:08:36;;;;;;;11.40;3.15;;;24.60;37.00;;;;;;5056135;28;45390;-62
2021/03/14 10:11:04;;;;;;;11.38;2.83;;;24.50;36.70;;;;;;5072337;28;45545;-64
2021/03/14 10:13:30;;;;;;;6.50;3.03;;;24.50;36.80;;;;;;5073483;28;47469;-65
2021/03/14 10:15:57;;;;;;;9.18;3.50;;;24.50;36.80;;;;;;5056125;28;45539;-64
2021/03/14 10:18:24;;;;;;;7.55;3.60;;;24.50;36.70;;;;;;5052884;28;45363;-64
2021/03/14 10:20:50;;;;;;;10.85;4.15;;;24.50;36.50;;;;;;5076336;28;45550;-61
2021/03/14 10:23:21;;;;;;;13.05;3.67;;;24.60;36.40;;;;;;5058507;28;46303;-60
2021/03/14 10:25:47;;;;;;;7.13;3.40;;;24.60;36.10;;;;;;5073213;28;45489;-60
2021/03/14 10:28:17;;;;;;;6.20;3.10;;;24.50;36.10;;;;;;5075517;28;45405;-61
2021/03/14 10:30:44;;;;;;;7.45;3.13;;;24.60;36.10;;;;;;5086226;28;45544;-58
2021/03/14 10:33:11;;;;;;;10.63;3.47;;;24.60;36.10;;;;;;5054493;28;45609;-58
2021/03/14 10:35:38;;;;;;;6.47;3.00;;;24.60;35.90;;;;;;5057999;28;45451;-58
2021/03/14 10:38:17;;;;;;;7.35;3.72;;;24.60;36.60;;;;;;5063598;28;45699;-58
2021/03/14 10:40:43;;;;;;;7.25;3.85;;;24.60;36.10;;;;;;5061999;28;45614;-58
2021/03/14 10:43:23;;;;;;;7.40;4.20;;;24.60;36.40;;;;;;5068519;28;46475;-58
2021/03/14 10:45:49;;;;;;;9.27;4.55;;;24.50;36.30;;;;;;5079609;28;45505;-58
2021/03/14 10:48:15;;;;;;;11.30;4.43;;;24.50;36.50;;;;;;5064935;28;45488;-58
2021/03/14 10:50:40;;;;;;;10.18;4.53;;;24.50;36.40;;;;;;5066380;28;45431;-58
2021/03/14 10:53:16;;;;;;;10.00;5.10;;;24.30;36.30;;;;;;5058150;28;45661;-58
2021/03/14 10:55:43;;;;;;;9.25;4.57;;;24.30;36.30;;;;;;5066703;28;46514;-58
2021/03/14 10:58:16;;;;;;;10.05;4.60;;;24.30;36.80;;;;;;5048649;28;45696;-59
2021/03/14 11:00:50;;;;;;;9.68;4.78;;;24.30;37.20;;;;;;5065749;28;45441;-56
2021/03/14 11:03:26;;;;;;;7.72;4.22;;;24.30;37.40;;;;;;5071297;28;45503;-68
2021/03/14 11:05:59;;;;;;;9.32;4.65;;;24.40;38.60;;;;;;5039880;28;45554;-58
2021/03/14 11:08:25;;;;;;;8.65;4.45;;;24.50;38.30;;;;;;5045725;28;45523;-61
2021/03/14 11:10:55;;;;;;;8.65;4.57;;;24.50;38.10;;;;;;5055754;28;45565;-61
2021/03/14 11:13:21;;;;;;;9.40;3.90;;;24.50;38.20;;;;;;5055854;28;45444;-62
2021/03/14 11:15:46;;;;;;;7.40;3.92;;;24.60;38.20;;;;;;5074834;28;45526;-63
2021/03/14 11:18:22;;;;;;;7.32;3.97;;;24.70;38.30;;;;;;5069072;28;45670;-63
2021/03/14 11:20:47;;;;;;;10.32;3.88;;;24.70;38.60;;;;;;5056052;28;45497;-59
2021/03/14 11:23:13;;;;;;;11.07;4.20;;;24.70;38.50;;;;;;5045821;28;46161;-61
2021/03/14 11:25:39;;;;;;;7.57;3.90;;;24.70;38.50;;;;;;5053253;28;45473;-62
2021/03/14 11:28:09;;;;;;;10.18;3.95;;;24.70;38.40;;;;;;5062329;28;45303;-61
2021/03/14 11:30:34;;;;;;;8.70;3.85;;;24.70;38.50;;;;;;5077855;28;45490;-63
2021/03/14 11:33:00;;;;;;;9.93;4.43;;;24.70;38.40;;;;;;5064845;28;46024;-59
2021/03/14 11:35:25;;;;;;;9.35;3.70;;;24.70;38.50;;;;;;5057860;28;45638;-62
2021/03/14 11:37:51;;;;;;;6.97;3.47;;;24.70;38.60;;;;;;5057996;28;45395;-64
2021/03/14 11:40:17;;;;;;;6.57;3.40;;;24.70;38.50;;;;;;5055991;28;45649;-62
2021/03/14 11:42:42;;;;;;;10.20;3.42;;;24.70;38.50;;;;;;5083022;28;46248;-71
2021/03/14 11:45:10;;;;;;;9.70;3.72;;;24.70;38.50;;;;;;5050192;28;45449;-65
2021/03/14 11:47:36;;;;;;;7.22;3.65;;;24.70;38.80;;;;;;5052238;28;45722;-71
2021/03/14 11:50:02;;;;;;;9.55;3.70;;;24.70;38.90;;;;;;5062319;28;45529;-65
2021/03/14 11:52:29;;;;;;;8.57;3.17;;;24.80;39.10;;;;;;5076227;28;45491;-64
2021/03/14 11:54:54;;;;;;;9.38;3.65;;;24.90;39.00;;;;;;5052500;28;45421;-62
2021/03/14 11:57:20;;;;;;;7.68;3.33;;;24.90;39.20;;;;;;5046108;28;45582;-61
2021/03/14 11:59:46;;;;;;;7.45;3.30;;;24.90;38.90;;;;;;5055598;28;46495;-62
2021/03/14 12:02:11;;;;;;;7.45;2.95;;;24.90;38.80;;;;;;5053706;28;46613;-64
2021/03/14 12:04:37;;;;;;;8.38;3.42;;;24.80;38.80;;;;;;5058164;28;45469;-66
2021/03/14 12:07:03;;;;;;;8.13;3.75;;;24.80;39.00;;;;;;5059361;28;45443;-59
2021/03/14 12:09:28;;;;;;;7.65;3.80;;;24.90;39.00;;;;;;5064693;28;45347;-57
2021/03/14 12:11:54;;;;;;;9.82;3.72;;;24.90;39.00;;;;;;5026221;28;45978;-63
2021/03/14 12:14:20;;;;;;;8.02;3.33;;;24.90;39.10;;;;;;5057966;28;45343;-60
2021/03/14 12:16:45;;;;;;;13.38;3.42;;;24.90;39.80;;;;;;5060653;28;45354;-59
2021/03/14 12:19:11;;;;;;;8.38;4.00;;;25.00;39.40;;;;;;5057033;28;45802;-62
2021/03/14 12:21:37;;;;;;;7.43;3.05;;;25.00;39.20;;;;;;5039337;28;47191;-63
2021/03/14 12:24:03;;;;;;;10.60;4.30;;;24.90;39.10;;;;;;5062268;28;46442;-63
2021/03/14 12:26:28;;;;;;;8.35;2.95;;;24.90;39.10;;;;;;5069837;28;45514;-56
2021/03/14 12:28:54;;;;;;;8.35;3.15;;;24.90;39.20;;;;;;5052833;28;45668;-59
2021/03/14 12:31:20;;;;;;;6.20;3.22;;;25.00;39.20;;;;;;5058091;28;47064;-64
2021/03/14 12:33:45;;;;;;;9.05;3.75;;;25.00;39.20;;;;;;5084429;28;45480;-67
2021/03/14 12:36:14;;;;;;;7.35;2.95;;;25.10;39.30;;;;;;5057923;28;45415;-64
2021/03/14 12:38:41;;;;;;;8.65;3.30;;;25.10;39.30;;;;;;5077357;28;45438;-75
2021/03/14 12:41:06;;;;;;;8.20;3.20;;;25.10;39.20;;;;;;5075486;28;45358;-73
2021/03/14 12:43:32;;;;;;;8.13;2.90;;;25.00;39.10;;;;;;5055184;28;45636;-67
2021/03/14 12:45:58;;;;;;;5.22;2.63;;;25.00;39.10;;;;;;5051973;28;45508;-72
2021/03/14 12:48:23;;;;;;;7.93;2.97;;;25.10;39.10;;;;;;5049155;28;45596;-70